Time;durP1;ratioP1;P1;durP2;ratioP2;P2;SDS_P1;SDS_P2;PMS_P1;PMS_P2;Temp;Humidity;BMP_temperature;BMP_pressure;BME280_temperature;BME280_humidity;BME280_pressure;Samples;Min_cycle;Max_cycle;Signal;HPM_P1;HPM_P2
2021/01/10 00:00:35;;;;;;;16.65;9.77;;;-1.20;99.90;;;;;;5033293;28;20399;-82
2021/01/10 00:03:02;;;;;;;16.40;9.20;;;-1.20;99.90;;;;;;5032470;28;20034;-83
2021/01/10 00:05:37;;;;;;;18.50;11.15;;;-1.20;99.90;;;;;;5033805;28;20033;-81
2021/01/10 00:08:03;;;;;;;15.13;9.18;;;-1.20;99.90;;;;;;5031744;28;20394;-81
2021/01/10 00:10:30;;;;;;;24.45;10.63;;;-1.20;99.90;;;;;;5032857;28;20497;-82
2021/01/10 00:13:01;;;;;;;16.92;9.80;;;-1.20;99.90;;;;;;5050488;28;20037;-82
2021/01/10 00:15:28;;;;;;;20.60;10.75;;;-1.20;99.90;;;;;;5047724;28;20356;-82
2021/01/10 00:17:55;;;;;;;16.20;8.68;;;-1.20;99.90;;;;;;5038411;28;20040;-82
2021/01/10 00:20:21;;;;;;;16.52;9.77;;;-1.10;99.90;;;;;;5044471;28;20033;-82
2021/01/10 00:22:55;;;;;;;16.27;8.85;;;-1.10;99.90;;;;;;5015504;28;20048;-82
2021/01/10 00:25:22;;;;;;;19.20;9.85;;;-1.10;99.90;;;;;;5032584;28;20033;-82
2021/01/10 00:27:49;;;;;;;15.60;9.68;;;-1.00;99.90;;;;;;5015234;28;20052;-83
2021/01/10 00:30:21;;;;;;;16.23;9.25;;;-1.00;99.90;;;;;;5031078;28;20394;-82
2021/01/10 00:32:55;;;;;;;17.42;9.40;;;-1.00;99.90;;;;;;5031905;28;20046;-82
2021/01/10 00:35:25;;;;;;;17.63;8.85;;;-1.00;99.90;;;;;;5031511;28;20040;-82
2021/01/10 00:37:56;;;;;;;16.23;9.93;;;-1.10;99.90;;;;;;5040126;28;20038;-82
2021/01/10 00:40:23;;;;;;;18.17;9.88;;;-1.10;99.90;;;;;;5050368;28;20383;-82
2021/01/10 00:42:50;;;;;;;17.52;10.18;;;-1.20;99.90;;;;;;5047258;28;20422;-82
2021/01/10 00:45:17;;;;;;;19.52;9.80;;;-1.20;99.90;;;;;;5041913;28;20030;-81
2021/01/10 00:47:48;;;;;;;15.98;9.40;;;-1.30;99.90;;;;;;5034718;28;20037;-82
2021/01/10 00:50:20;;;;;;;14.38;7.78;;;-1.20;99.90;;;;;;5034828;28;20037;-82
2021/01/10 00:52:47;;;;;;;15.95;8.95;;;-1.30;99.90;;;;;;5038788;28;20033;-81
2021/01/10 00:55:13;;;;;;;16.48;9.45;;;-1.40;99.90;;;;;;5018905;28;20042;-83
2021/01/10 00:57:39;;;;;;;18.63;10.55;;;-1.40;99.90;;;;;;5035074;28;20037;-82
2021/01/10 01:00:15;;;;;;;18.38;9.25;;;-1.50;99.90;;;;;;5040734;28;20627;-82
2021/01/10 01:02:48;;;;;;;13.27;7.35;;;-1.60;99.90;;;;;;5035564;28;20037;-82
2021/01/10 01:05:15;;;;;;;13.95;8.00;;;-1.70;99.90;;;;;;5037967;28;20033;-82
2021/01/10 01:07:41;;;;;;;16.80;8.93;;;-1.80;99.90;;;;;;5051200;28;20038;-82
2021/01/10 01:10:09;;;;;;;14.00;8.93;;;-1.80;99.90;;;;;;5035303;28;20045;-82
2021/01/10 01:12:36;;;;;;;16.52;8.30;;;-1.90;99.90;;;;;;5045195;28;20041;-83
2021/01/10 01:15:02;;;;;;;17.08;8.77;;;-2.00;99.90;;;;;;5034041;28;20041;-83
2021/01/10 01:17:29;;;;;;;14.65;8.43;;;-2.10;99.90;;;;;;5051865;28;20033;-83
2021/01/10 01:19:55;;;;;;;16.60;8.43;;;-2.20;99.90;;;;;;5018583;28;20044;-83
2021/01/10 01:22:21;;;;;;;23.02;12.45;;;-2.20;99.90;;;;;;5036507;28;20036;-83
2021/01/10 01:24:47;;;;;;;23.45;11.38;;;-2.20;99.90;;;;;;5035188;28;20036;-83
2021/01/10 01:27:14;;;;;;;22.65;11.15;;;-2.20;99.90;;;;;;5053560;28;20041;-82
2021/01/10 01:29:40;;;;;;;15.82;8.82;;;-2.40;99.90;;;;;;5053621;28;20044;-82
2021/01/10 01:32:06;;;;;;;16.80;8.88;;;-2.40;99.90;;;;;;5053140;28;20056;-83
2021/01/10 01:34:32;;;;;;;16.23;8.05;;;-2.60;99.90;;;;;;5034752;28;20042;-82
2021/01/10 01:36:58;;;;;;;19.40;8.82;;;-2.70;99.90;;;;;;5051181;28;20471;-84
2021/01/10 01:39:25;;;;;;;16.35;8.82;;;-2.70;99.90;;;;;;5055621;28;20036;-83
2021/01/10 01:41:51;;;;;;;21.13;9.27;;;-2.80;99.90;;;;;;5053644;28;20045;-83
2021/01/10 01:44:17;;;;;;;15.65;9.15;;;-2.80;99.90;;;;;;5054851;28;20041;-82
2021/01/10 01:46:44;;;;;;;17.30;9.20;;;-2.90;99.90;;;;;;5072275;28;20029;-82
2021/01/10 01:49:11;;;;;;;18.67;9.93;;;-2.90;99.90;;;;;;5039740;28;20025;-82
2021/01/10 01:51:38;;;;;;;18.85;10.18;;;-3.00;99.90;;;;;;5047261;28;20486;-82
2021/01/10 01:54:05;;;;;;;19.45;10.05;;;-3.10;99.90;;;;;;5047210;28;20045;-82
2021/01/10 01:56:34;;;;;;;20.85;10.55;;;-3.00;99.90;;;;;;5046957;28;20045;-82
2021/01/10 01:59:05;;;;;;;19.40;9.45;;;-3.00;99.90;;;;;;5044996;28;20045;-82
2021/01/10 02:01:34;;;;;;;20.65;9.35;;;-3.00;99.90;;;;;;5045137;28;20041;-82
2021/01/10 02:04:11;;;;;;;17.52;9.02;;;-3.00;99.90;;;;;;5036050;28;20034;-82
2021/01/10 02:07:02;;;;;;;19.38;9.75;;;-3.10;99.90;;;;;;5054763;28;20032;-82
2021/01/10 02:09:30;;;;;;;16.65;9.25;;;-3.20;99.90;;;;;;5031980;28;20049;-82
2021/01/10 02:12:02;;;;;;;22.20;11.23;;;-3.30;99.90;;;;;;5028581;28;20041;-83
2021/01/10 02:14:29;;;;;;;;;;;-3.20;99.90;;;;;;5050381;28;20038;-83
2021/01/10 02:16:56;;;;;;;18.70;9.30;;;-3.20;99.90;;;;;;5038470;28;19909;-83
2021/01/10 02:19:34;;;;;;;16.90;9.40;;;-3.30;99.90;;;;;;5035021;28;20049;-83
2021/01/10 02:22:05;;;;;;;18.60;8.75;;;-3.30;99.90;;;;;;5017807;28;20046;-83
2021/01/10 02:24:34;;;;;;;16.65;9.07;;;-3.40;99.90;;;;;;5033729;28;20509;-82
2021/01/10 02:27:04;;;;;;;19.45;9.68;;;-3.50;99.90;;;;;;5033761;28;20033;-83
2021/01/10 02:29:32;;;;;;;19.48;8.88;;;-3.60;99.90;;;;;;5040410;28;20045;-82
2021/01/10 02:32:01;;;;;;;20.83;8.75;;;-3.60;99.90;;;;;;5035454;28;20045;-82
2021/01/10 02:34:27;;;;;;;19.60;9.07;;;-3.50;99.90;;;;;;5042795;28;20413;-83
2021/01/10 02:37:29;;;;;;;17.95;9.65;;;-3.60;99.90;;;;;;5039024;28;20068;-84
2021/01/10 02:40:25;;;;;;;18.90;9.23;;;-3.70;99.90;;;;;;5035991;28;20049;-83
2021/01/10 02:43:10;;;;;;;20.92;10.38;;;-3.80;99.90;;;;;;5016061;28;20037;-82
2021/01/10 02:45:41;;;;;;;17.08;8.80;;;-3.80;99.90;;;;;;5050224;28;20041;-82
2021/01/10 02:48:10;;;;;;;18.48;9.38;;;-3.80;99.90;;;;;;5034140;28;20479;-83
2021/01/10 02:50:37;;;;;;;20.27;10.15;;;-3.80;99.90;;;;;;5041998;28;20035;-83
2021/01/10 02:53:04;;;;;;;18.67;10.15;;;-3.90;99.90;;;;;;5049651;28;20545;-83
2021/01/10 02:55:30;;;;;;;20.50;9.35;;;-3.80;99.90;;;;;;5049209;28;20048;-82
2021/01/10 02:58:03;;;;;;;27.42;10.80;;;-3.90;99.90;;;;;;5048053;28;20375;-83
2021/01/10 03:00:31;;;;;;;24.92;11.77;;;-3.80;99.90;;;;;;5033611;28;20392;-83
2021/01/10 03:02:59;;;;;;;16.08;9.15;;;-3.90;99.90;;;;;;5044251;28;20051;-83
2021/01/10 03:05:32;;;;;;;22.75;10.95;;;-3.80;99.90;;;;;;5030427;28;20033;-83
2021/01/10 03:07:59;;;;;;;20.77;10.48;;;-3.80;99.90;;;;;;5034844;28;20087;-83
2021/01/10 03:10:25;;;;;;;20.92;9.93;;;-3.90;99.90;;;;;;5018069;28;20070;-82
2021/01/10 03:12:52;;;;;;;23.73;10.90;;;-4.00;99.90;;;;;;5047308;28;20041;-83
2021/01/10 03:15:18;;;;;;;20.25;9.68;;;-4.00;99.90;;;;;;5044045;28;20033;-82
2021/01/10 03:17:47;;;;;;;24.55;11.07;;;-4.00;99.90;;;;;;5033474;28;20056;-82
2021/01/10 03:20:16;;;;;;;19.88;9.40;;;-4.10;99.90;;;;;;5030757;28;20052;-82
2021/01/10 03:22:47;;;;;;;21.88;10.30;;;-4.10;99.90;;;;;;5019189;28;20395;-82
2021/01/10 03:25:24;;;;;;;19.35;10.40;;;-4.00;99.90;;;;;;5036102;28;20037;-82
2021/01/10 03:27:51;;;;;;;19.42;9.25;;;-4.10;99.90;;;;;;5038452;28;20029;-82
2021/01/10 03:30:18;;;;;;;16.92;9.60;;;-4.20;99.90;;;;;;5042853;28;20036;-82
2021/01/10 03:32:45;;;;;;;20.33;10.00;;;-4.20;99.90;;;;;;5034454;28;20053;-81
2021/01/10 03:35:13;;;;;;;19.85;9.40;;;-4.20;99.90;;;;;;5049683;28;20044;-83
2021/01/10 03:37:39;;;;;;;20.60;9.10;;;-4.30;99.90;;;;;;5049510;28;20505;-82
2021/01/10 03:40:07;;;;;;;20.13;9.73;;;-4.20;99.90;;;;;;5040144;28;20474;-83
2021/01/10 03:42:34;;;;;;;21.08;10.35;;;-4.10;99.90;;;;;;5016461;28;20045;-82
2021/01/10 03:45:01;;;;;;;23.77;10.98;;;-4.20;99.90;;;;;;5036303;28;20045;-81
2021/01/10 03:47:27;;;;;;;22.58;10.98;;;-4.20;99.90;;;;;;5047780;28;20449;-82
2021/01/10 03:49:54;;;;;;;22.00;10.05;;;-4.10;99.90;;;;;;5034152;28;20064;-82
2021/01/10 03:52:20;;;;;;;19.48;10.13;;;-4.10;99.90;;;;;;5033173;28;20033;-82
2021/01/10 03:54:47;;;;;;;22.02;10.85;;;-4.10;99.90;;;;;;5051588;28;20041;-82
2021/01/10 03:57:13;;;;;;;22.42;10.18;;;-4.00;99.90;;;;;;5052604;28;20359;-82
2021/01/10 03:59:39;;;;;;;21.25;9.45;;;-4.20;99.90;;;;;;5018273;28;20056;-82
2021/01/10 04:02:06;;;;;;;18.08;9.23;;;-4.20;99.90;;;;;;5036982;28;20041;-81
2021/01/10 04:04:32;;;;;;;20.10;10.40;;;-4.20;99.90;;;;;;5045800;28;20052;-82
2021/01/10 04:06:58;;;;;;;20.77;10.82;;;-4.10;99.90;;;;;;5049212;28;20033;-82
2021/01/10 04:09:24;;;;;;;16.90;8.98;;;-4.10;99.90;;;;;;5016638;28;20037;-81
2021/01/10 04:11:51;;;;;;;18.08;8.80;;;-4.20;99.90;;;;;;5037631;28;20041;-82
2021/01/10 04:14:17;;;;;;;19.80;9.52;;;-4.20;99.90;;;;;;5051492;28;20599;-81
2021/01/10 04:16:43;;;;;;;20.92;10.65;;;-4.20;99.90;;;;;;5035475;28;20441;-81
2021/01/10 04:19:09;;;;;;;21.55;9.13;;;-4.20;99.90;;;;;;5047928;28;20366;-81
2021/01/10 04:21:36;;;;;;;19.75;9.35;;;-4.20;99.90;;;;;;5017783;28;20045;-82
2021/01/10 04:24:03;;;;;;;23.02;9.52;;;-4.20;99.90;;;;;;5033530;28;20041;-82
2021/01/10 04:26:32;;;;;;;18.98;8.98;;;-4.20;99.90;;;;;;5035100;28;20044;-81
2021/01/10 04:28:58;;;;;;;25.92;12.18;;;-4.20;99.90;;;;;;5031349;28;20037;-83
2021/01/10 04:31:24;;;;;;;25.08;12.38;;;-4.20;99.90;;;;;;5048566;28;20041;-82
2021/01/10 04:33:51;;;;;;;21.02;10.85;;;-4.20;99.90;;;;;;5033808;28;20383;-81
2021/01/10 04:36:17;;;;;;;24.08;10.63;;;-4.10;99.90;;;;;;5036895;28;20048;-82
2021/01/10 04:38:43;;;;;;;20.10;10.32;;;-4.10;99.90;;;;;;5043640;28;20386;-81
2021/01/10 04:41:10;;;;;;;28.95;13.18;;;-4.10;99.90;;;;;;5050450;28;20045;-82
2021/01/10 04:43:37;;;;;;;21.15;11.70;;;-4.20;99.90;;;;;;5018627;28;20049;-82
2021/01/10 04:46:04;;;;;;;17.08;8.98;;;-4.20;99.90;;;;;;5034388;28;20044;-81
2021/01/10 04:48:30;;;;;;;19.23;9.05;;;-4.30;99.90;;;;;;5034705;28;20482;-81
2021/01/10 04:50:57;;;;;;;19.83;9.20;;;-4.30;99.90;;;;;;5036097;28;20042;-83
2021/01/10 04:53:26;;;;;;;15.65;8.05;;;-4.40;99.90;;;;;;5032329;28;20041;-81
2021/01/10 04:55:57;;;;;;;19.73;8.88;;;-4.40;99.90;;;;;;5031689;28;20390;-81
2021/01/10 04:58:29;;;;;;;16.50;7.88;;;-4.40;99.90;;;;;;5033574;28;20049;-81
2021/01/10 05:00:57;;;;;;;;;;;-4.40;99.90;;;;;;5033007;28;20044;-81
2021/01/10 05:03:24;;;;;;;18.80;9.32;;;-4.30;99.90;;;;;;5046196;28;19909;-82
2021/01/10 05:05:51;;;;;;;19.15;8.98;;;-4.40;99.90;;;;;;5032904;28;20029;-81
2021/01/10 05:08:17;;;;;;;24.10;11.30;;;-4.50;99.90;;;;;;5031553;28;20038;-81
2021/01/10 05:10:44;;;;;;;23.88;10.82;;;-4.60;99.90;;;;;;5031033;28;20124;-81
2021/01/10 05:13:10;;;;;;;17.58;8.85;;;-4.60;99.90;;;;;;5030577;28;20041;-81
2021/01/10 05:15:37;;;;;;;14.02;8.30;;;-4.80;99.90;;;;;;5037510;28;20029;-81
2021/01/10 05:18:04;;;;;;;15.57;8.35;;;-4.70;99.90;;;;;;5033839;28;20052;-81
2021/01/10 05:20:32;;;;;;;16.50;8.95;;;-4.80;99.90;;;;;;5049696;28;20040;-80
2021/01/10 05:22:59;;;;;;;17.98;8.27;;;-4.90;99.90;;;;;;5041456;28;20467;-84
2021/01/10 05:25:26;;;;;;;14.27;7.63;;;-4.90;99.90;;;;;;5035639;28;20029;-80
2021/01/10 05:27:53;;;;;;;15.88;8.95;;;-4.90;99.90;;;;;;5043561;28;20036;-80
2021/01/10 05:30:26;;;;;;;16.90;8.13;;;-4.80;99.90;;;;;;5023263;28;20046;-80
2021/01/10 05:33:06;;;;;;;13.90;7.82;;;-4.80;99.90;;;;;;5031852;28;20034;-82
2021/01/10 05:35:49;;;;;;;15.53;7.43;;;-4.70;99.90;;;;;;5037486;28;20032;-81
2021/01/10 05:38:28;;;;;;;14.68;7.72;;;-4.70;99.90;;;;;;5049895;28;20037;-80
2021/01/10 05:40:56;;;;;;;17.95;8.57;;;-4.70;99.90;;;;;;5018276;28;20393;-81
2021/01/10 05:43:24;;;;;;;19.63;8.95;;;-4.70;99.90;;;;;;5043778;28;20045;-80
2021/01/10 05:45:51;;;;;;;19.67;9.18;;;-4.70;99.90;;;;;;5035912;28;20394;-81
2021/01/10 05:48:18;;;;;;;16.70;7.93;;;-4.80;99.90;;;;;;5034070;28;20398;-80
2021/01/10 05:50:49;;;;;;;16.77;7.97;;;-4.80;99.90;;;;;;5034138;28;20042;-80
2021/01/10 05:53:15;;;;;;;;;;;-4.90;99.90;;;;;;5034569;28;20045;-80
2021/01/10 05:56:02;;;;;;;13.68;6.20;;;-5.00;99.90;;;;;;5049023;28;20362;-80
2021/01/10 05:58:30;;;;;;;15.63;7.03;;;-5.00;99.90;;;;;;5042437;28;20046;-81
2021/01/10 06:01:15;;;;;;;12.93;6.68;;;-5.00;99.90;;;;;;5035368;28;20038;-80
2021/01/10 06:03:41;;;;;;;13.68;7.00;;;-5.00;99.90;;;;;;5039123;28;20033;-80
2021/01/10 06:06:09;;;;;;;16.42;6.93;;;-5.00;99.90;;;;;;5049766;28;20044;-80
2021/01/10 06:08:39;;;;;;;14.65;7.75;;;-4.90;99.90;;;;;;5021132;28;20399;-81
2021/01/10 06:11:24;;;;;;;17.00;8.55;;;-4.90;99.90;;;;;;5035157;28;20033;-81
2021/01/10 06:13:53;;;;;;;18.35;7.90;;;-4.90;99.90;;;;;;5034145;28;20033;-80
2021/01/10 06:16:21;;;;;;;16.95;8.63;;;-4.90;99.90;;;;;;5033433;28;20037;-80
2021/01/10 06:19:16;;;;;;;19.38;8.38;;;-4.90;99.90;;;;;;5038605;28;20052;-80
2021/01/10 06:21:47;;;;;;;14.90;7.32;;;-4.90;99.90;;;;;;5033626;28;20505;-80
2021/01/10 06:24:19;;;;;;;17.70;7.68;;;-4.90;99.90;;;;;;5034326;28;20026;-80
2021/01/10 06:26:53;;;;;;;15.98;7.82;;;-4.90;99.90;;;;;;5047941;28;20040;-80
2021/01/10 06:29:24;;;;;;;16.13;8.48;;;-4.90;99.90;;;;;;5034203;28;20405;-80
2021/01/10 06:31:53;;;;;;;18.92;8.63;;;-5.00;99.90;;;;;;5059548;28;20041;-80
2021/01/10 06:34:20;;;;;;;18.10;8.27;;;-5.00;99.90;;;;;;5033370;28;20636;-80
2021/01/10 06:36:47;;;;;;;16.83;9.23;;;-4.90;99.90;;;;;;5034683;28;20032;-80
2021/01/10 06:39:15;;;;;;;17.38;8.25;;;-4.90;99.90;;;;;;5033052;28;20033;-79
2021/01/10 06:42:03;;;;;;;17.05;8.25;;;-5.00;99.90;;;;;;5049251;28;20045;-80
2021/01/10 06:44:33;;;;;;;17.90;8.73;;;-5.00;99.90;;;;;;5034351;28;20366;-79
2021/01/10 06:47:00;;;;;;;17.40;8.18;;;-5.00;99.90;;;;;;5033732;28;20418;-81
2021/01/10 06:49:26;;;;;;;18.85;8.13;;;-4.90;99.90;;;;;;5033909;28;20040;-79
2021/01/10 06:51:57;;;;;;;15.07;7.40;;;-4.90;99.90;;;;;;5045718;28;20426;-79
2021/01/10 06:54:24;;;;;;;16.35;8.48;;;-4.90;99.90;;;;;;5047786;28;20068;-79
2021/01/10 06:56:53;;;;;;;18.27;8.60;;;-4.90;99.90;;;;;;5046733;28;20033;-79
2021/01/10 06:59:25;;;;;;;17.67;8.98;;;-5.00;99.90;;;;;;5051857;28;20029;-80
2021/01/10 07:01:52;;;;;;;15.38;7.63;;;-5.20;99.90;;;;;;5032807;28;20046;-79
2021/01/10 07:04:20;;;;;;;17.02;7.80;;;-5.20;99.90;;;;;;5042640;28;20037;-80
2021/01/10 07:06:48;;;;;;;14.07;7.45;;;-5.30;99.90;;;;;;5044550;28;20034;-79
2021/01/10 07:09:16;;;;;;;16.77;9.63;;;-5.30;99.90;;;;;;5034188;28;20045;-79
2021/01/10 07:11:43;;;;;;;17.25;8.85;;;-5.30;99.90;;;;;;5037136;28;20040;-79
2021/01/10 07:14:09;;;;;;;16.38;7.97;;;-5.30;99.90;;;;;;5043820;28;20040;-79
2021/01/10 07:16:36;;;;;;;16.50;8.30;;;-5.20;99.90;;;;;;5038338;28;20041;-80
2021/01/10 07:19:06;;;;;;;16.83;7.97;;;-5.10;99.90;;;;;;5015132;28;20068;-85
2021/01/10 07:21:33;;;;;;;16.33;8.27;;;-5.10;99.90;;;;;;5043045;28;20044;-79
2021/01/10 07:26:42;;;;;;;;;;;-5.30;99.90;;;;;;5039819;28;20029;-79
2021/01/10 07:29:34;;;;;;;14.32;6.70;;;-5.20;99.90;;;;;;5047513;28;20373;-79
2021/01/10 07:32:06;;;;;;;15.30;7.80;;;-5.20;99.90;;;;;;5048036;28;20055;-79
2021/01/10 07:34:56;;;;;;;13.27;7.32;;;-5.20;99.90;;;;;;5031542;28;20049;-79
2021/01/10 07:37:25;;;;;;;14.95;6.90;;;-5.20;99.90;;;;;;5031965;28;20526;-79
2021/01/10 07:39:57;;;;;;;16.52;8.55;;;-5.20;99.90;;;;;;5033849;28;20033;-79
2021/01/10 07:42:26;;;;;;;33.22;13.95;;;-5.10;99.90;;;;;;5042383;28;20063;-81
2021/01/10 07:45:20;;;;;;;35.05;15.57;;;-5.10;99.90;;;;;;5033895;28;20033;-79
2021/01/10 07:47:48;;;;;;;33.47;15.65;;;-5.20;99.90;;;;;;5033758;28;20336;-79
2021/01/10 07:50:15;;;;;;;29.50;12.15;;;-5.10;99.90;;;;;;5031214;28;20050;-79
2021/01/10 07:52:48;;;;;;;21.15;11.23;;;-5.10;99.90;;;;;;5044291;28;20033;-79
2021/01/10 07:55:18;;;;;;;15.70;9.38;;;-5.10;99.90;;;;;;5037815;28;20363;-79
2021/01/10 07:58:00;;;;;;;17.92;9.95;;;-5.10;99.90;;;;;;5043412;28;20040;-79
2021/01/10 08:00:49;;;;;;;17.42;9.90;;;-5.10;99.90;;;;;;5030743;28;20049;-79
2021/01/10 08:03:23;;;;;;;17.85;9.15;;;-5.00;99.90;;;;;;5035580;28;20029;-79
2021/01/10 08:06:04;;;;;;;17.17;8.00;;;-5.00;99.90;;;;;;5051947;28;20033;-79
2021/01/10 08:08:45;;;;;;;18.67;8.68;;;-4.90;99.90;;;;;;5031788;28;20045;-79
2021/01/10 08:11:13;;;;;;;;;;;-4.80;99.90;;;;;;5033410;28;20029;-79
2021/01/10 08:13:41;;;;;;;17.05;7.30;;;-4.70;99.90;;;;;;5044718;28;19919;-80
2021/01/10 08:16:11;;;;;;;16.73;8.65;;;-4.60;99.90;;;;;;5035087;28;20029;-81
2021/01/10 08:18:45;;;;;;;17.10;8.10;;;-4.50;99.90;;;;;;5032874;28;20360;-77
2021/01/10 08:21:14;;;;;;;19.42;8.40;;;-4.40;99.90;;;;;;5035301;28;20028;-79
2021/01/10 08:23:42;;;;;;;19.38;10.40;;;-4.30;99.90;;;;;;5047840;28;20040;-79
2021/01/10 08:26:11;;;;;;;18.60;10.40;;;-4.20;99.90;;;;;;5047017;28;20037;-79
2021/01/10 08:28:43;;;;;;;15.85;9.52;;;-4.10;99.90;;;;;;5031235;28;20044;-79
2021/01/10 08:31:12;;;;;;;18.13;9.10;;;-4.10;99.90;;;;;;5030659;28;20041;-79
2021/01/10 08:33:39;;;;;;;19.00;9.45;;;-4.00;99.90;;;;;;5031872;28;20509;-80
2021/01/10 08:36:08;;;;;;;16.63;9.45;;;-3.90;99.90;;;;;;5034155;28;20040;-80
2021/01/10 08:38:35;;;;;;;19.50;9.82;;;-3.80;99.90;;;;;;5021104;28;20052;-77
2021/01/10 08:41:02;;;;;;;16.95;8.75;;;-3.70;99.90;;;;;;5032252;28;20387;-79
2021/01/10 08:43:28;;;;;;;17.98;9.63;;;-3.60;99.90;;;;;;5044377;28;20498;-79
2021/01/10 08:45:54;;;;;;;18.48;9.77;;;-3.40;99.90;;;;;;5032711;28;20463;-79
2021/01/10 08:48:21;;;;;;;19.70;9.68;;;-3.30;99.90;;;;;;5047063;28;20041;-78
2021/01/10 08:50:47;;;;;;;15.48;8.85;;;-3.20;99.90;;;;;;5031930;28;20042;-78
2021/01/10 08:53:13;;;;;;;19.38;10.18;;;-3.10;99.90;;;;;;5040505;28;20041;-79
2021/01/10 08:55:42;;;;;;;17.23;8.77;;;-3.00;99.90;;;;;;5046527;28;20398;-77
2021/01/10 08:58:10;;;;;;;17.38;9.05;;;-2.90;99.90;;;;;;5032764;28;20034;-78
2021/01/10 09:00:41;;;;;;;19.65;10.95;;;-2.80;99.90;;;;;;5046690;28;20033;-78
2021/01/10 09:03:18;;;;;;;15.50;9.27;;;-2.70;99.90;;;;;;5031735;28;20041;-78
2021/01/10 09:05:49;;;;;;;18.38;10.10;;;-2.50;99.90;;;;;;5043114;28;20064;-77
2021/01/10 09:08:30;;;;;;;21.05;10.82;;;-2.40;99.90;;;;;;5048565;28;20041;-77
2021/01/10 09:11:05;;;;;;;16.88;10.35;;;-2.30;99.90;;;;;;5035690;28;20042;-79
2021/01/10 09:13:33;;;;;;;24.00;12.73;;;-2.20;99.90;;;;;;5036462;28;20033;-77
2021/01/10 09:16:03;;;;;;;20.30;12.88;;;-2.10;99.90;;;;;;5048080;28;20386;-77
2021/01/10 09:18:34;;;;;;;17.45;10.75;;;-2.00;99.90;;;;;;5050711;28;20378;-77
2021/01/10 09:21:12;;;;;;;17.10;8.98;;;-1.90;99.90;;;;;;5041444;28;20033;-78
2021/01/10 09:23:50;;;;;;;16.98;9.00;;;-1.80;99.90;;;;;;5057254;28;20052;-85
2021/01/10 09:26:34;;;;;;;13.93;7.70;;;-1.70;99.90;;;;;;5062320;28;20045;-82
2021/01/10 09:29:02;;;;;;;16.42;8.18;;;-1.60;99.90;;;;;;5057059;28;20041;-84
2021/01/10 09:31:48;;;;;;;15.40;8.80;;;-1.50;99.90;;;;;;5038732;28;20044;-80
2021/01/10 09:34:15;;;;;;;11.23;6.88;;;-1.30;99.90;;;;;;5036263;28;20056;-80
2021/01/10 09:36:42;;;;;;;12.50;7.30;;;-1.20;99.90;;;;;;5036714;28;20034;-80
2021/01/10 09:39:08;;;;;;;14.60;8.23;;;-1.20;99.90;;;;;;5034795;28;20052;-80
2021/01/10 09:41:54;;;;;;;14.75;8.60;;;-1.10;99.90;;;;;;5037809;28;20066;-80
2021/01/10 09:44:20;;;;;;;12.27;7.68;;;-1.00;99.90;;;;;;5041306;28;20029;-82
2021/01/10 09:46:54;;;;;;;12.35;6.53;;;-0.90;99.90;;;;;;5040541;28;20040;-82
2021/01/10 09:49:25;;;;;;;9.48;5.95;;;-0.80;99.90;;;;;;5058524;28;20425;-83
2021/01/10 09:52:03;;;;;;;12.05;7.60;;;-0.70;99.90;;;;;;5050245;28;20053;-83
2021/01/10 09:54:32;;;;;;;7.93;4.97;;;-0.60;99.90;;;;;;5042923;28;20370;-79
2021/01/10 09:57:00;;;;;;;10.35;5.85;;;-0.50;99.90;;;;;;5048728;28;20026;-80
2021/01/10 09:59:46;;;;;;;8.27;5.25;;;-0.40;99.90;;;;;;5041872;28;20033;-81
2021/01/10 10:02:13;;;;;;;8.35;5.07;;;-0.30;99.90;;;;;;5040453;28;20037;-80
2021/01/10 10:04:41;;;;;;;9.40;5.60;;;-0.20;99.90;;;;;;5054705;28;20513;-80
2021/01/10 10:07:08;;;;;;;9.13;5.65;;;-0.10;99.90;;;;;;5053654;28;20036;-79
2021/01/10 10:09:52;;;;;;;9.52;5.45;;;-0.10;99.90;;;;;;5036567;28;20048;-80
2021/01/10 10:12:20;;;;;;;8.80;5.45;;;0.10;99.90;;;;;;5044163;28;20489;-77
2021/01/10 10:15:06;;;;;;;9.13;5.47;;;0.10;99.90;;;;;;5034773;28;20041;-77
2021/01/10 10:17:37;;;;;;;7.88;4.72;;;0.30;99.90;;;;;;5035762;28;20041;-80
2021/01/10 10:20:05;;;;;;;7.97;5.07;;;0.40;99.90;;;;;;5036265;28;20483;-78
2021/01/10 10:22:34;;;;;;;10.13;6.55;;;0.40;99.90;;;;;;5033362;28;20041;-78
2021/01/10 10:25:02;;;;;;;8.88;5.30;;;0.50;99.90;;;;;;5043876;28;20059;-78
2021/01/10 10:27:30;;;;;;;8.45;5.10;;;0.60;99.90;;;;;;5052551;28;20044;-77
2021/01/10 10:29:57;;;;;;;10.07;8.20;;;0.70;99.90;;;;;;5049149;28;20034;-78
2021/01/10 10:32:24;;;;;;;8.57;4.88;;;0.70;99.90;;;;;;5033023;28;20403;-78
2021/01/10 10:34:52;;;;;;;10.18;8.27;;;0.80;99.90;;;;;;5052150;28;20466;-79
2021/01/10 10:37:18;;;;;;;22.00;17.17;;;0.90;99.90;;;;;;5034034;28;20036;-78
2021/01/10 10:39:46;;;;;;;13.45;10.73;;;1.00;99.90;;;;;;5034439;28;20507;-78
2021/01/10 10:42:15;;;;;;;7.88;4.93;;;1.10;99.90;;;;;;5033422;28;20065;-78
2021/01/10 10:44:43;;;;;;;8.10;4.90;;;1.10;99.90;;;;;;5035428;28;20036;-79
2021/01/10 10:47:11;;;;;;;7.72;4.57;;;1.10;99.90;;;;;;5033869;28;20030;-78
2021/01/10 10:49:38;;;;;;;8.77;5.28;;;1.10;99.90;;;;;;5039563;28;20032;-78
2021/01/10 10:52:08;;;;;;;4.75;3.20;;;1.20;99.90;;;;;;5038044;28;20049;-78
2021/01/10 10:54:35;;;;;;;6.00;4.20;;;1.30;99.90;;;;;;5034297;28;20041;-78
2021/01/10 10:57:01;;;;;;;6.90;4.05;;;1.40;99.90;;;;;;5032914;28;20479;-77
2021/01/10 10:59:28;;;;;;;5.97;3.47;;;1.50;99.90;;;;;;5033693;28;20471;-77
2021/01/10 11:01:54;;;;;;;5.47;3.33;;;1.60;99.90;;;;;;5033972;28;20391;-78
2021/01/10 11:04:21;;;;;;;6.28;3.95;;;1.70;99.90;;;;;;5031843;28;20041;-78
2021/01/10 11:06:47;;;;;;;7.70;4.68;;;1.70;99.90;;;;;;5032593;28;20044;-78
2021/01/10 11:09:13;;;;;;;7.32;4.95;;;1.90;99.90;;;;;;5046553;28;20382;-78
2021/01/10 11:11:48;;;;;;;8.88;5.60;;;1.90;99.90;;;;;;5043185;28;20390;-78
2021/01/10 11:14:16;;;;;;;9.20;5.55;;;1.90;99.90;;;;;;5050049;28;20041;-78
2021/01/10 11:16:43;;;;;;;8.90;5.90;;;1.80;99.90;;;;;;5047048;28;20021;-79
2021/01/10 11:19:10;;;;;;;21.48;14.25;;;1.80;99.90;;;;;;5034950;28;20033;-80
2021/01/10 11:21:41;;;;;;;8.23;5.22;;;1.80;99.90;;;;;;5042669;28;20060;-80
2021/01/10 11:24:09;;;;;;;8.40;5.28;;;1.80;99.90;;;;;;5032476;28;20048;-80
2021/01/10 11:26:36;;;;;;;10.05;5.25;;;2.00;99.90;;;;;;5032651;28;20041;-79
2021/01/10 11:29:04;;;;;;;7.60;5.20;;;1.90;99.90;;;;;;5033437;28;20037;-79
2021/01/10 11:31:35;;;;;;;9.10;5.00;;;2.00;99.90;;;;;;5033296;28;20033;-80
2021/01/10 11:34:08;;;;;;;8.13;5.20;;;2.10;99.90;;;;;;5032053;28;20044;-80
2021/01/10 11:36:35;;;;;;;9.02;5.40;;;2.10;99.90;;;;;;5033646;28;20038;-80
2021/01/10 11:39:02;;;;;;;8.48;5.47;;;2.10;99.90;;;;;;5035292;28;20391;-79
2021/01/10 11:41:29;;;;;;;8.63;5.80;;;2.10;99.90;;;;;;5022179;28;20041;-80
2021/01/10 11:43:55;;;;;;;9.77;5.97;;;2.10;99.90;;;;;;5033063;28;20061;-80
2021/01/10 11:46:22;;;;;;;7.68;5.05;;;2.20;99.90;;;;;;5015924;28;20041;-80
2021/01/10 11:48:49;;;;;;;6.57;4.10;;;2.20;99.90;;;;;;5033126;28;20029;-80
2021/01/10 11:51:17;;;;;;;6.32;4.70;;;2.20;99.90;;;;;;5032611;28;20029;-80
2021/01/10 11:53:43;;;;;;;6.05;3.53;;;2.30;99.90;;;;;;5047696;28;20029;-80
2021/01/10 11:56:10;;;;;;;5.93;3.40;;;2.30;99.90;;;;;;5035385;28;20029;-82
2021/01/10 11:58:40;;;;;;;6.53;3.28;;;2.30;99.90;;;;;;5038247;28;20029;-80
2021/01/10 12:01:07;;;;;;;6.67;3.93;;;2.40;99.90;;;;;;5048072;28;20038;-80
2021/01/10 12:03:34;;;;;;;6.47;4.03;;;2.40;99.90;;;;;;5046339;28;20284;-81
2021/01/10 12:06:00;;;;;;;7.20;4.50;;;2.40;99.90;;;;;;5032933;28;20029;-80
2021/01/10 12:08:28;;;;;;;7.85;4.40;;;2.40;99.90;;;;;;5032686;28;20025;-80
2021/01/10 12:10:55;;;;;;;6.78;4.30;;;2.40;99.90;;;;;;5048207;28;20044;-79
2021/01/10 12:13:21;;;;;;;7.00;4.32;;;2.40;99.90;;;;;;5047306;28;20040;-79
2021/01/10 12:15:48;;;;;;;8.90;4.63;;;2.40;99.90;;;;;;5040888;28;20032;-78
2021/01/10 12:18:15;;;;;;;10.32;4.95;;;2.40;99.90;;;;;;5046849;28;20029;-79
2021/01/10 12:20:42;;;;;;;8.55;4.70;;;2.40;99.90;;;;;;5032653;28;20025;-79
2021/01/10 12:23:09;;;;;;;6.47;3.67;;;2.40;99.90;;;;;;5031311;28;20045;-81
2021/01/10 12:25:35;;;;;;;6.75;4.25;;;2.40;99.90;;;;;;5032350;28;20029;-79
2021/01/10 12:28:02;;;;;;;8.77;5.68;;;2.50;99.90;;;;;;5032784;28;20033;-80
2021/01/10 12:30:28;;;;;;;6.57;3.72;;;2.60;99.90;;;;;;5035095;28;20025;-80
2021/01/10 12:32:57;;;;;;;6.45;4.15;;;2.60;99.90;;;;;;5031852;28;20052;-80
2021/01/10 12:35:24;;;;;;;13.70;5.65;;;2.60;99.90;;;;;;5031734;28;20395;-80
2021/01/10 12:37:50;;;;;;;20.70;10.77;;;2.60;99.30;;;;;;5039322;28;20036;-79
2021/01/10 12:40:17;;;;;;;10.35;5.75;;;2.50;99.10;;;;;;5046664;28;20040;-79
2021/01/10 12:42:44;;;;;;;9.65;5.60;;;2.60;99.30;;;;;;5032375;28;20045;-79
2021/01/10 12:45:12;;;;;;;9.07;6.93;;;2.70;99.90;;;;;;5036215;28;20060;-80
2021/01/10 12:47:43;;;;;;;9.45;6.57;;;2.80;98.80;;;;;;5046376;28;20462;-80
2021/01/10 12:50:11;;;;;;;5.97;3.60;;;2.90;97.50;;;;;;5039933;28;20479;-80
2021/01/10 12:52:38;;;;;;;5.43;3.00;;;2.90;96.70;;;;;;5039920;28;20040;-80
2021/01/10 12:55:06;;;;;;;7.60;5.07;;;3.00;96.30;;;;;;5052628;28;20041;-79